createdAt,value
2022-10-16T00:00:37.593Z,0.00
2022-10-16T00:01:37.592Z,0.00
2022-10-16T00:02:37.576Z,0.00
2022-10-16T00:03:37.468Z,0.00
2022-10-16T00:04:37.475Z,0.00
2022-10-16T00:05:37.390Z,0.00
2022-10-16T00:06:37.344Z,0.00
2022-10-16T00:07:37.304Z,0.00
2022-10-16T00:08:37.258Z,0.00
2022-10-16T00:09:37.224Z,0.00
2022-10-16T00:10:37.195Z,0.00
2022-10-16T00:11:37.125Z,0.00
2022-10-16T00:12:37.089Z,0.00
2022-10-16T00:13:37.088Z,0.00
2022-10-16T00:14:37.005Z,0.00
2022-10-16T00:15:36.961Z,0.00
2022-10-16T00:16:36.961Z,0.00
2022-10-16T00:17:36.906Z,0.00
2022-10-16T00:18:36.839Z,0.00
2022-10-16T00:19:36.804Z,0.00
2022-10-16T00:20:36.744Z,0.00
2022-10-16T00:21:36.701Z,0.00
2022-10-16T00:22:36.684Z,0.00
2022-10-16T00:23:36.629Z,0.00
2022-10-16T00:24:36.590Z,0.00
2022-10-16T00:25:36.532Z,0.00
2022-10-16T00:26:36.509Z,0.00
2022-10-16T00:27:36.457Z,0.00
2022-10-16T00:28:36.523Z,0.00
2022-10-16T00:29:36.392Z,0.00
2022-10-16T00:30:36.331Z,0.00
2022-10-16T00:31:36.302Z,0.00
2022-10-16T00:32:36.242Z,0.00
2022-10-16T00:33:36.191Z,0.00
2022-10-16T00:34:36.184Z,0.00
2022-10-16T00:35:36.140Z,0.00
2022-10-16T00:36:36.111Z,0.00
2022-10-16T00:37:36.022Z,0.00
2022-10-16T00:38:35.981Z,0.00
2022-10-16T00:39:35.939Z,0.00
2022-10-16T00:40:35.907Z,0.00
2022-10-16T00:41:35.882Z,0.00
2022-10-16T00:42:35.863Z,0.00
2022-10-16T00:43:35.786Z,0.00
2022-10-16T00:44:35.764Z,0.00
2022-10-16T00:45:35.719Z,0.00
2022-10-16T00:46:35.654Z,0.00
2022-10-16T00:47:35.627Z,0.00
2022-10-16T00:48:35.595Z,0.00
2022-10-16T00:49:35.541Z,0.00
2022-10-16T00:50:35.497Z,0.00
2022-10-16T00:51:35.431Z,0.00
2022-10-16T00:52:35.460Z,0.00
2022-10-16T00:53:35.344Z,0.00
2022-10-16T00:54:35.301Z,0.00
2022-10-16T00:55:38.745Z,0.00
2022-10-16T00:56:35.220Z,0.00
2022-10-16T00:57:35.183Z,0.00
2022-10-16T00:58:35.270Z,0.00
2022-10-16T00:59:35.148Z,0.00
2022-10-16T01:00:35.057Z,0.00
2022-10-16T01:01:35.071Z,0.00
2022-10-16T01:02:34.960Z,0.00
2022-10-16T01:03:34.971Z,0.00
2022-10-16T01:04:34.882Z,0.00
2022-10-16T01:05:34.837Z,0.00
2022-10-16T01:06:34.820Z,0.00
2022-10-16T01:07:34.746Z,0.00
2022-10-16T01:08:34.709Z,0.00
2022-10-16T01:09:34.756Z,0.00
2022-10-16T01:10:34.621Z,0.00
2022-10-16T01:11:34.602Z,0.00
2022-10-16T01:12:38.441Z,0.00
2022-10-16T01:13:34.538Z,0.00
2022-10-16T01:14:34.493Z,0.00
2022-10-16T01:15:34.509Z,0.00
2022-10-16T01:16:34.368Z,0.00
2022-10-16T01:17:34.332Z,0.00
2022-10-16T01:18:34.299Z,0.00
2022-10-16T01:19:34.288Z,0.00
2022-10-16T01:20:34.193Z,0.00
2022-10-16T01:21:34.184Z,0.00
2022-10-16T01:22:34.117Z,0.00
2022-10-16T01:23:34.121Z,0.00
2022-10-16T01:24:34.109Z,0.00
2022-10-16T01:25:34.008Z,0.00
2022-10-16T01:26:33.945Z,0.00
2022-10-16T01:27:33.954Z,0.00
2022-10-16T01:28:33.904Z,0.00
2022-10-16T01:29:33.803Z,0.00
2022-10-16T01:30:33.768Z,0.00
2022-10-16T01:31:33.754Z,0.00
2022-10-16T01:32:33.682Z,0.00
2022-10-16T01:33:33.676Z,0.00
2022-10-16T01:34:33.597Z,0.00
2022-10-16T01:35:33.561Z,0.00
2022-10-16T01:36:33.511Z,0.00
2022-10-16T01:37:33.467Z,0.00
2022-10-16T01:38:33.427Z,0.00
2022-10-16T01:39:33.414Z,0.00
2022-10-16T01:40:33.347Z,0.00
2022-10-16T01:41:33.304Z,0.00
2022-10-16T01:42:33.259Z,0.00
2022-10-16T01:43:33.233Z,0.00
2022-10-16T01:44:33.171Z,0.00
2022-10-16T01:45:33.132Z,0.00
2022-10-16T01:46:33.090Z,0.00
2022-10-16T01:47:33.068Z,0.00
2022-10-16T01:48:33.019Z,0.00
2022-10-16T01:49:32.962Z,0.00
2022-10-16T01:50:32.919Z,0.00
2022-10-16T01:51:32.877Z,0.00
2022-10-16T01:52:32.832Z,0.00
2022-10-16T01:53:32.790Z,0.00
2022-10-16T01:54:32.872Z,0.00
2022-10-16T01:55:32.707Z,0.00
2022-10-16T01:56:32.661Z,0.00
2022-10-16T01:57:32.620Z,0.00
2022-10-16T01:58:32.572Z,0.00
2022-10-16T01:59:32.533Z,0.00
2022-10-16T02:00:32.521Z,0.00
2022-10-16T02:01:32.451Z,0.00
2022-10-16T02:02:32.406Z,0.00
2022-10-16T02:03:32.365Z,0.00
2022-10-16T02:04:32.322Z,0.00
2022-10-16T02:05:32.280Z,0.00
2022-10-16T02:06:32.261Z,0.00
2022-10-16T02:07:32.194Z,0.00
2022-10-16T02:08:32.152Z,0.00
2022-10-16T02:09:32.107Z,0.00
2022-10-16T02:10:32.883Z,0.00
2022-10-16T02:11:32.022Z,0.00
2022-10-16T02:12:31.979Z,0.00
2022-10-16T02:13:31.934Z,0.00
2022-10-16T02:14:31.895Z,0.00
2022-10-16T02:15:31.882Z,0.00
2022-10-16T02:16:31.810Z,0.00
2022-10-16T02:17:31.780Z,0.00
2022-10-16T02:18:31.721Z,0.00
2022-10-16T02:19:31.712Z,0.00
2022-10-16T02:20:31.640Z,0.00
2022-10-16T02:21:31.606Z,0.00
2022-10-16T02:22:31.573Z,0.00
2022-10-16T02:23:31.510Z,0.00
2022-10-16T02:24:31.469Z,0.00
2022-10-16T02:25:31.427Z,0.00
2022-10-16T02:26:31.384Z,0.00
2022-10-16T02:27:31.336Z,0.00
2022-10-16T02:28:31.362Z,0.00
2022-10-16T02:29:31.277Z,0.00
2022-10-16T02:30:31.212Z,0.00
2022-10-16T02:31:31.170Z,0.00
2022-10-16T02:32:31.128Z,0.00
2022-10-16T02:33:31.081Z,0.00
2022-10-16T02:34:31.040Z,0.00
2022-10-16T02:35:31.016Z,0.00
2022-10-16T02:36:30.956Z,0.00
2022-10-16T02:37:30.910Z,0.00
2022-10-16T02:38:30.867Z,0.00
2022-10-16T02:39:30.831Z,0.00
2022-10-16T02:40:30.798Z,0.00
2022-10-16T02:41:30.743Z,0.00
2022-10-16T02:42:30.699Z,0.00
2022-10-16T02:43:30.656Z,0.00
2022-10-16T02:44:30.615Z,0.00
2022-10-16T02:45:30.565Z,0.00
2022-10-16T02:46:30.548Z,0.00
2022-10-16T02:47:30.484Z,0.00
2022-10-16T02:48:30.439Z,0.00
2022-10-16T02:49:30.399Z,0.00
2022-10-16T02:50:30.352Z,0.00
2022-10-16T02:51:30.307Z,0.00
2022-10-16T02:52:30.288Z,0.00
2022-10-16T02:53:30.225Z,0.00
2022-10-16T02:54:30.182Z,0.00
2022-10-16T02:55:30.140Z,0.00
2022-10-16T02:56:30.101Z,0.00
2022-10-16T02:57:30.051Z,0.00
2022-10-16T02:58:30.020Z,0.00
2022-10-16T02:59:29.973Z,0.00
2022-10-16T03:00:29.951Z,0.00
2022-10-16T03:01:29.953Z,0.00
2022-10-16T03:02:29.840Z,0.00
2022-10-16T03:03:29.795Z,0.00
2022-10-16T03:04:29.766Z,0.00
2022-10-16T03:05:29.707Z,0.00
2022-10-16T03:06:29.686Z,0.00
2022-10-16T03:07:29.624Z,0.00
2022-10-16T03:08:29.582Z,0.00
2022-10-16T03:09:29.543Z,0.00
2022-10-16T03:10:29.497Z,0.00
2022-10-16T03:11:29.452Z,0.00
2022-10-16T03:12:29.440Z,0.00
2022-10-16T03:13:29.368Z,0.00
2022-10-16T03:15:29.294Z,0.00
2022-10-16T03:16:29.242Z,0.00
2022-10-16T03:17:29.425Z,0.00
2022-10-16T03:18:29.152Z,0.00
2022-10-16T03:19:29.110Z,0.00
2022-10-16T03:20:29.066Z,0.00
2022-10-16T03:21:29.023Z,0.00
2022-10-16T03:22:28.981Z,0.00
2022-10-16T03:23:28.963Z,0.00
2022-10-16T03:24:28.896Z,0.00
2022-10-16T03:25:28.851Z,0.00
2022-10-16T03:26:28.808Z,0.00
2022-10-16T03:27:29.032Z,0.00
2022-10-16T03:28:28.774Z,0.00
2022-10-16T03:29:28.682Z,0.00
2022-10-16T03:30:28.635Z,0.00
2022-10-16T03:31:28.596Z,0.00
2022-10-16T03:32:28.624Z,0.00
2022-10-16T03:33:28.507Z,0.00
2022-10-16T03:34:28.466Z,0.00
2022-10-16T03:35:28.449Z,0.00
2022-10-16T03:36:28.397Z,0.00
2022-10-16T03:37:28.612Z,0.00
2022-10-16T03:38:28.292Z,0.00
2022-10-16T03:39:28.253Z,0.00
2022-10-16T03:40:28.209Z,0.00
2022-10-16T03:41:28.167Z,0.00
2022-10-16T03:42:28.123Z,0.00
2022-10-16T03:43:28.103Z,0.00
2022-10-16T03:44:28.042Z,0.00
2022-10-16T03:45:28.022Z,0.00
2022-10-16T03:46:27.977Z,0.00
2022-10-16T03:47:28.165Z,0.00
2022-10-16T03:48:27.868Z,0.00
2022-10-16T03:49:27.824Z,0.00
2022-10-16T03:50:27.780Z,0.00
2022-10-16T03:51:27.738Z,0.00
2022-10-16T03:52:27.699Z,0.00
2022-10-16T03:53:27.679Z,0.00
2022-10-16T03:54:27.637Z,0.00
2022-10-16T03:55:27.600Z,0.00
2022-10-16T03:56:27.529Z,0.00
2022-10-16T03:57:27.788Z,0.00
2022-10-16T03:58:28.378Z,0.00
2022-10-16T03:59:27.422Z,0.00
2022-10-16T04:00:27.357Z,0.00
2022-10-16T04:01:27.353Z,0.00
2022-10-16T04:02:27.274Z,0.00
2022-10-16T04:03:27.232Z,0.00
2022-10-16T04:04:27.186Z,0.00
2022-10-16T04:05:27.157Z,0.00
2022-10-16T04:06:27.103Z,0.00
2022-10-16T04:07:27.389Z,0.00
2022-10-16T04:08:27.018Z,0.00
2022-10-16T04:09:26.978Z,0.00
2022-10-16T04:10:26.960Z,0.00
2022-10-16T04:11:26.890Z,0.00
2022-10-16T04:12:26.848Z,0.00
2022-10-16T04:13:26.808Z,0.00
2022-10-16T04:14:26.760Z,0.00
2022-10-16T04:15:26.717Z,0.00
2022-10-16T04:16:26.690Z,0.00
2022-10-16T04:17:26.838Z,0.00
2022-10-16T04:18:26.588Z,0.00
2022-10-16T04:19:26.550Z,0.00
2022-10-16T04:20:26.505Z,0.00
2022-10-16T04:21:26.458Z,0.00
2022-10-16T04:23:26.496Z,0.00
2022-10-16T04:24:26.333Z,0.00
2022-10-16T04:25:26.297Z,0.00
2022-10-16T04:26:26.274Z,0.00
2022-10-16T04:27:26.282Z,0.00
2022-10-16T04:28:26.181Z,0.00
2022-10-16T04:29:26.125Z,0.00
2022-10-16T04:30:26.077Z,0.00
2022-10-16T04:31:26.050Z,0.00
2022-10-16T04:32:25.998Z,0.00
2022-10-16T04:33:25.951Z,0.00
2022-10-16T04:34:25.908Z,0.00
2022-10-16T04:35:25.864Z,0.00
2022-10-16T04:36:28.421Z,0.00
2022-10-16T04:37:26.058Z,0.00
2022-10-16T04:38:25.735Z,0.00
2022-10-16T04:39:25.696Z,0.00
2022-10-16T04:40:25.653Z,0.00
2022-10-16T04:41:25.608Z,0.00
2022-10-16T04:42:25.568Z,0.00
2022-10-16T04:43:25.590Z,0.00
2022-10-16T04:44:25.483Z,0.00
2022-10-16T04:45:25.439Z,0.00
2022-10-16T04:46:25.434Z,0.00
2022-10-16T04:47:25.553Z,0.00
2022-10-16T04:48:25.334Z,0.00
2022-10-16T04:49:25.268Z,0.00
2022-10-16T04:50:25.225Z,0.00
2022-10-16T04:51:25.179Z,0.00
2022-10-16T04:52:25.226Z,0.00
2022-10-16T04:53:25.095Z,0.00
2022-10-16T04:54:25.051Z,0.00
2022-10-16T04:55:25.035Z,0.00
2022-10-16T04:56:24.972Z,0.00
2022-10-16T04:57:25.155Z,0.00
2022-10-16T04:58:24.885Z,0.00
2022-10-16T04:59:24.838Z,0.00
2022-10-16T05:00:24.836Z,0.00
2022-10-16T05:01:24.752Z,0.00
2022-10-16T05:02:24.944Z,0.00
2022-10-16T05:03:24.701Z,0.00
2022-10-16T05:04:24.625Z,0.00
2022-10-16T05:05:24.582Z,0.00
2022-10-16T05:06:24.542Z,0.00
2022-10-16T05:07:24.773Z,0.00
2022-10-16T05:08:24.468Z,0.00
2022-10-16T05:09:24.411Z,0.00
2022-10-16T05:10:24.369Z,0.00
2022-10-16T05:11:24.327Z,0.00
2022-10-16T05:12:24.282Z,0.00
2022-10-16T05:13:24.239Z,0.00
2022-10-16T05:14:24.228Z,0.00
2022-10-16T05:15:24.155Z,0.00
2022-10-16T05:16:24.176Z,0.00
2022-10-16T05:17:24.442Z,0.00
2022-10-16T05:18:24.020Z,0.00
2022-10-16T05:19:27.984Z,0.00
2022-10-16T05:20:23.941Z,0.00
2022-10-16T05:21:23.906Z,0.00
2022-10-16T05:22:23.855Z,0.00
2022-10-16T05:23:23.809Z,0.00
2022-10-16T05:24:23.764Z,0.00
2022-10-16T05:25:23.728Z,0.00
2022-10-16T05:26:23.698Z,0.00
2022-10-16T05:27:23.834Z,0.00
2022-10-16T05:28:23.668Z,0.00
2022-10-16T05:29:23.550Z,0.00
2022-10-16T05:30:23.504Z,0.00
2022-10-16T05:31:23.465Z,0.00
2022-10-16T05:32:23.449Z,0.00
2022-10-16T05:33:23.377Z,0.00
2022-10-16T05:34:23.336Z,0.00
2022-10-16T05:35:23.288Z,0.00
2022-10-16T05:36:23.250Z,0.00
2022-10-16T05:37:23.480Z,0.00
2022-10-16T05:38:23.182Z,0.00
2022-10-16T05:39:23.133Z,0.00
2022-10-16T05:40:23.081Z,5.63
2022-10-16T05:41:23.038Z,5.63
2022-10-16T05:42:22.994Z,5.63
2022-10-16T05:43:22.952Z,11.25
2022-10-16T05:44:22.944Z,11.25
2022-10-16T05:45:22.860Z,11.25
2022-10-16T05:46:22.826Z,11.25
2022-10-16T05:47:22.772Z,11.25
2022-10-16T05:48:22.741Z,11.25
2022-10-16T05:49:22.690Z,11.25
2022-10-16T05:50:22.681Z,11.25
2022-10-16T05:51:22.606Z,16.88
2022-10-16T05:52:22.565Z,16.88
2022-10-16T05:53:22.520Z,16.88
2022-10-16T05:54:22.503Z,22.50
2022-10-16T05:55:22.434Z,22.50
2022-10-16T05:56:22.399Z,22.50
2022-10-16T05:57:22.383Z,28.13
2022-10-16T05:58:22.379Z,28.13
2022-10-16T05:59:22.263Z,33.75
2022-10-16T06:03:58.218Z,50.63
2022-10-16T06:04:58.112Z,50.63
2022-10-16T06:05:58.066Z,56.25
2022-10-16T06:06:58.020Z,56.25
2022-10-16T06:07:57.980Z,61.88
2022-10-16T06:08:57.978Z,67.50
2022-10-16T06:09:57.891Z,67.50
2022-10-16T06:10:57.850Z,73.13
2022-10-16T06:11:57.800Z,78.75
2022-10-16T06:12:57.760Z,84.38
2022-10-16T06:13:57.727Z,90.00
2022-10-16T06:14:57.671Z,95.63
2022-10-16T06:15:57.627Z,101.25
2022-10-16T06:16:57.586Z,106.88
2022-10-16T06:17:57.539Z,112.50
2022-10-16T06:18:57.522Z,118.13
2022-10-16T06:19:57.455Z,118.13
2022-10-16T06:20:57.437Z,123.75
2022-10-16T06:21:57.397Z,129.38
2022-10-16T06:22:57.325Z,129.38
2022-10-16T06:23:57.287Z,129.38
2022-10-16T06:24:57.239Z,129.38
2022-10-16T06:25:57.197Z,129.38
2022-10-16T06:26:57.176Z,135.00
2022-10-16T06:27:57.114Z,140.63
2022-10-16T06:28:57.211Z,146.25
2022-10-16T06:29:57.025Z,157.50
2022-10-16T06:30:56.982Z,168.75
2022-10-16T06:31:56.941Z,174.38
2022-10-16T06:32:56.978Z,185.63
2022-10-16T06:33:56.855Z,185.63
2022-10-16T06:34:56.810Z,191.25
2022-10-16T06:35:56.769Z,191.25
2022-10-16T06:36:56.738Z,191.25
2022-10-16T06:37:56.686Z,196.88
2022-10-16T06:38:56.680Z,196.88
2022-10-16T06:39:56.596Z,196.88
2022-10-16T06:40:56.555Z,196.88
2022-10-16T06:41:56.550Z,196.88
2022-10-16T06:42:56.467Z,196.88
2022-10-16T06:43:56.456Z,196.88
2022-10-16T06:44:56.422Z,196.88
2022-10-16T06:45:56.343Z,196.88
2022-10-16T06:46:56.302Z,196.88
2022-10-16T06:47:56.258Z,191.25
2022-10-16T06:48:56.217Z,191.25
2022-10-16T06:49:56.170Z,185.63
2022-10-16T06:50:56.205Z,185.63
2022-10-16T06:51:56.094Z,180.00
2022-10-16T06:52:56.065Z,180.00
2022-10-16T06:54:04.392Z,180.00
2022-10-16T06:54:55.961Z,185.63
2022-10-16T06:55:55.937Z,185.63
2022-10-16T06:56:55.876Z,191.25
2022-10-16T06:57:55.839Z,191.25
2022-10-16T06:58:55.798Z,191.25
2022-10-16T06:59:55.754Z,191.25
2022-10-16T07:00:55.709Z,191.25
2022-10-16T07:01:55.687Z,191.25
2022-10-16T07:02:55.628Z,191.25
2022-10-16T07:03:55.607Z,191.25
2022-10-16T07:04:55.545Z,191.25
2022-10-16T07:05:55.500Z,202.50
2022-10-16T07:06:55.456Z,208.13
2022-10-16T07:07:55.433Z,213.75
2022-10-16T07:08:55.374Z,225.00
2022-10-16T07:09:55.333Z,236.25
2022-10-16T07:10:55.287Z,247.50
2022-10-16T07:11:55.240Z,264.38
2022-10-16T07:12:55.201Z,275.63
2022-10-16T07:13:56.428Z,281.25
2022-10-16T07:14:55.117Z,286.88
2022-10-16T07:15:55.075Z,292.50
2022-10-16T07:16:55.029Z,292.50
2022-10-16T07:17:54.996Z,286.88
2022-10-16T07:18:55.563Z,286.88
2022-10-16T07:19:54.937Z,292.50
2022-10-16T07:20:54.862Z,298.13
2022-10-16T07:21:54.824Z,298.13
2022-10-16T07:22:54.782Z,298.13
2022-10-16T07:23:54.738Z,298.13
2022-10-16T07:24:54.696Z,309.38
2022-10-16T07:25:54.672Z,303.75
2022-10-16T07:26:54.631Z,298.13
2022-10-16T07:27:54.571Z,281.25
2022-10-16T07:28:54.623Z,264.38
2022-10-16T07:29:54.484Z,236.25
2022-10-16T07:30:54.441Z,219.38
2022-10-16T07:31:54.403Z,202.50
2022-10-16T07:32:54.378Z,191.25
2022-10-16T07:33:54.319Z,191.25
2022-10-16T07:34:54.274Z,196.88
2022-10-16T07:35:54.230Z,196.88
2022-10-16T07:37:04.468Z,202.50
2022-10-16T07:37:54.206Z,213.75
2022-10-16T07:38:57.163Z,219.38
2022-10-16T07:39:54.215Z,225.00
2022-10-16T07:40:54.160Z,225.00
2022-10-16T07:41:53.991Z,236.25
2022-10-16T07:42:53.957Z,236.25
2022-10-16T07:43:54.572Z,230.63
2022-10-16T07:44:54.126Z,241.88
2022-10-16T07:45:53.830Z,247.50
2022-10-16T07:46:54.088Z,247.50
2022-10-16T07:47:53.964Z,241.88
2022-10-16T07:48:53.681Z,241.88
2022-10-16T07:49:53.705Z,253.13
2022-10-16T07:50:53.642Z,264.38
2022-10-16T07:51:53.565Z,264.38
2022-10-16T07:52:53.537Z,258.75
2022-10-16T07:53:53.617Z,270.00
2022-10-16T07:55:53.393Z,258.75
2022-10-16T07:56:53.414Z,241.88
2022-10-16T07:57:53.375Z,236.25
2022-10-16T07:58:53.476Z,241.88
2022-10-16T07:59:53.269Z,253.13
2022-10-16T08:00:53.338Z,258.75
2022-10-16T08:01:53.194Z,281.25
2022-10-16T08:02:53.096Z,281.25
2022-10-16T08:03:53.123Z,286.88
2022-10-16T08:04:53.009Z,286.88
2022-10-16T08:05:54.084Z,286.88
2022-10-16T08:06:52.959Z,286.88
2022-10-16T08:07:52.885Z,286.88
2022-10-16T08:08:52.969Z,286.88
2022-10-16T08:09:52.871Z,292.50
2022-10-16T08:10:52.811Z,286.88
2022-10-16T08:11:52.771Z,286.88
2022-10-16T08:12:53.473Z,292.50
2022-10-16T08:13:52.648Z,292.50
2022-10-16T08:14:52.587Z,298.13
2022-10-16T08:15:52.553Z,298.13
2022-10-16T08:16:52.590Z,298.13
2022-10-16T08:17:52.465Z,298.13
2022-10-16T08:18:52.582Z,298.13
2022-10-16T08:19:52.372Z,298.13
2022-10-16T08:20:52.336Z,298.13
2022-10-16T08:21:52.343Z,298.13
2022-10-16T08:22:52.250Z,298.13
2022-10-16T08:23:55.089Z,298.13
2022-10-16T08:24:52.165Z,298.13
2022-10-16T08:25:52.120Z,298.13
2022-10-16T08:26:52.081Z,298.13
2022-10-16T08:27:52.059Z,298.13
2022-10-16T08:28:52.107Z,303.75
2022-10-16T08:29:51.949Z,298.13
2022-10-16T08:30:51.914Z,298.13
2022-10-16T08:31:51.910Z,298.13
2022-10-16T08:32:51.832Z,298.13
2022-10-16T08:33:51.784Z,298.13
2022-10-16T08:34:51.745Z,298.13
2022-10-16T08:35:51.699Z,298.13
2022-10-16T08:36:51.681Z,303.75
2022-10-16T08:37:51.618Z,309.38
2022-10-16T08:38:51.598Z,315.00
2022-10-16T08:39:51.539Z,326.25
2022-10-16T08:40:53.713Z,337.50
2022-10-16T08:41:51.451Z,348.75
2022-10-16T08:42:51.459Z,365.63
2022-10-16T08:43:51.375Z,376.88
2022-10-16T08:44:51.329Z,376.88
2022-10-16T08:45:51.283Z,365.63
2022-10-16T08:46:51.239Z,343.13
2022-10-16T08:47:51.208Z,331.88
2022-10-16T08:48:51.188Z,326.25
2022-10-16T08:49:51.119Z,326.25
2022-10-16T08:50:51.076Z,331.88
2022-10-16T08:51:51.034Z,360.00
2022-10-16T08:52:50.994Z,382.50
2022-10-16T08:53:50.959Z,393.75
2022-10-16T08:54:50.936Z,427.50
2022-10-16T08:55:50.875Z,455.63
2022-10-16T08:56:50.851Z,1068.75
2022-10-16T08:57:50.783Z,2154.38
2022-10-16T08:58:52.801Z,2525.63
2022-10-16T08:59:50.696Z,2581.88
2022-10-16T09:00:50.734Z,2587.50
2022-10-16T09:01:50.625Z,2655.00
2022-10-16T09:02:50.578Z,2700.00
2022-10-16T09:03:50.536Z,2711.25
2022-10-16T09:04:55.571Z,2801.25
2022-10-16T09:05:50.458Z,2891.25
2022-10-16T09:06:50.446Z,2919.38
2022-10-16T09:07:50.496Z,3060.00
2022-10-16T09:08:50.372Z,2300.63
2022-10-16T09:09:50.305Z,2947.50
2022-10-16T09:10:50.270Z,3054.38
2022-10-16T09:11:50.229Z,2638.13
2022-10-16T09:12:50.222Z,1957.50
2022-10-16T09:13:50.157Z,1850.63
2022-10-16T09:14:50.161Z,1203.75
2022-10-16T09:15:50.086Z,1406.25
2022-10-16T09:16:50.050Z,1321.88
2022-10-16T09:17:50.016Z,1968.75
2022-10-16T09:18:49.977Z,2120.63
2022-10-16T09:19:49.953Z,2131.88
2022-10-16T09:20:49.938Z,1805.63
2022-10-16T09:21:49.872Z,2424.38
2022-10-16T09:22:49.836Z,2930.63
2022-10-16T09:23:49.797Z,2891.25
2022-10-16T09:24:49.777Z,2941.88
2022-10-16T09:25:49.758Z,2981.25
2022-10-16T09:26:49.760Z,2711.25
2022-10-16T09:27:49.662Z,3155.63
2022-10-16T09:28:49.683Z,3060.00
2022-10-16T09:29:49.600Z,3206.25
2022-10-16T09:30:49.572Z,3290.63
2022-10-16T09:31:49.537Z,3262.50
2022-10-16T09:32:49.542Z,3161.25
2022-10-16T09:33:49.466Z,3161.25
2022-10-16T09:34:49.453Z,3234.38
2022-10-16T09:35:49.410Z,3183.75
2022-10-16T09:36:49.380Z,2846.25
2022-10-16T09:37:49.339Z,2970.00
2022-10-16T09:38:49.334Z,3015.00
2022-10-16T09:39:49.277Z,3172.50
2022-10-16T09:40:52.114Z,3223.13
2022-10-16T09:41:49.210Z,3155.63
2022-10-16T09:42:49.187Z,3127.50
2022-10-16T09:43:49.151Z,3048.75
2022-10-16T09:44:49.156Z,3116.25
2022-10-16T09:45:49.082Z,3273.75
2022-10-16T09:46:49.086Z,2435.63
2022-10-16T09:47:50.854Z,3206.25
2022-10-16T09:48:48.998Z,3200.63
2022-10-16T09:49:48.966Z,3285.00
2022-10-16T09:50:48.933Z,3313.13
2022-10-16T09:51:48.905Z,3358.13
2022-10-16T09:52:49.008Z,3352.50
2022-10-16T09:53:48.896Z,3380.63
2022-10-16T09:54:48.813Z,3256.88
2022-10-16T09:55:48.785Z,3150.00
2022-10-16T09:56:48.753Z,3273.75
2022-10-16T09:57:48.727Z,3296.25
2022-10-16T09:58:48.732Z,3335.63
2022-10-16T09:59:48.671Z,3335.63
2022-10-16T10:00:48.642Z,3155.63
2022-10-16T10:01:48.629Z,3245.63
2022-10-16T10:02:48.597Z,3420.00
2022-10-16T10:03:48.546Z,3375.00
2022-10-16T10:04:48.523Z,3318.75
2022-10-16T10:05:48.490Z,3307.50
2022-10-16T10:06:48.462Z,3363.75
2022-10-16T10:07:48.492Z,3380.63
2022-10-16T10:08:48.403Z,3346.88
2022-10-16T10:09:48.415Z,3313.13
2022-10-16T10:10:48.356Z,3397.50
2022-10-16T10:11:48.339Z,3425.63
2022-10-16T10:12:48.291Z,3436.88
2022-10-16T10:13:49.001Z,3583.13
2022-10-16T10:14:48.233Z,3639.38
2022-10-16T10:15:48.200Z,3616.88
2022-10-16T10:16:48.175Z,3633.75
2022-10-16T10:17:48.148Z,3588.75
2022-10-16T10:18:48.116Z,3594.38
2022-10-16T10:19:48.176Z,3684.38
2022-10-16T10:20:48.063Z,3706.88
2022-10-16T10:21:48.032Z,3825.00
2022-10-16T10:22:48.003Z,3954.38
2022-10-16T10:23:47.982Z,3915.00
2022-10-16T10:24:47.958Z,3661.88
2022-10-16T10:25:47.952Z,3521.25
2022-10-16T10:26:48.709Z,3588.75
2022-10-16T10:27:47.861Z,3616.88
2022-10-16T10:28:47.892Z,3729.38
2022-10-16T10:29:47.845Z,3746.25
2022-10-16T10:30:47.780Z,3706.88
2022-10-16T10:31:47.755Z,3673.13
2022-10-16T10:32:47.729Z,3785.63
2022-10-16T10:33:47.695Z,3785.63
2022-10-16T10:34:48.484Z,3611.25
2022-10-16T10:35:47.650Z,3802.50
2022-10-16T10:36:47.614Z,3836.25
2022-10-16T10:37:47.615Z,3718.13
2022-10-16T10:38:47.618Z,3746.25
2022-10-16T10:39:47.536Z,3819.38
2022-10-16T10:40:47.515Z,3706.88
2022-10-16T10:41:47.485Z,3650.63
2022-10-16T10:42:47.454Z,3403.13
2022-10-16T10:43:47.433Z,3369.38
2022-10-16T10:44:48.017Z,3594.38
2022-10-16T10:45:47.375Z,4173.75
2022-10-16T10:46:47.412Z,4185.00
2022-10-16T10:47:47.325Z,1935.00
2022-10-16T10:48:47.290Z,4381.88
2022-10-16T10:49:49.002Z,4128.75
2022-10-16T10:50:47.245Z,4156.88
2022-10-16T10:51:47.300Z,4235.63
2022-10-16T10:52:47.181Z,4179.38
2022-10-16T10:53:47.156Z,4055.63
2022-10-16T10:54:47.128Z,3988.13
2022-10-16T10:55:47.106Z,4111.88
2022-10-16T10:56:47.105Z,4246.88
2022-10-16T10:57:47.081Z,4342.50
2022-10-16T10:58:47.048Z,4618.13
2022-10-16T10:59:46.996Z,3639.38
2022-10-16T11:00:46.972Z,3999.38
2022-10-16T11:01:46.997Z,3622.50
2022-10-16T11:02:46.970Z,4263.75
2022-10-16T11:03:46.888Z,4421.25
2022-10-16T11:04:46.872Z,3301.88
2022-10-16T11:05:46.839Z,3909.38
2022-10-16T11:06:46.932Z,3245.63
2022-10-16T11:07:48.579Z,4815.00
2022-10-16T11:08:48.539Z,3296.25
2022-10-16T11:09:47.646Z,4393.13
2022-10-16T11:10:46.718Z,2874.38
2022-10-16T11:11:46.738Z,3858.75
2022-10-16T11:12:46.687Z,3532.50
2022-10-16T11:13:46.627Z,3982.50
2022-10-16T11:14:46.594Z,4393.13
2022-10-16T11:15:46.649Z,4185.00
2022-10-16T11:16:46.550Z,3976.88
2022-10-16T11:17:46.508Z,4477.50
2022-10-16T11:18:46.511Z,3903.75
2022-10-16T11:19:46.462Z,3926.25
2022-10-16T11:20:46.429Z,4488.75
2022-10-16T11:21:46.401Z,4657.50
2022-10-16T11:22:46.378Z,4398.75
2022-10-16T11:23:46.343Z,4539.38
2022-10-16T11:24:46.353Z,2334.38
2022-10-16T11:25:46.300Z,1951.88
2022-10-16T11:26:46.255Z,2250.00
2022-10-16T11:27:46.229Z,2340.00
2022-10-16T11:28:46.269Z,1974.38
2022-10-16T11:29:46.170Z,3369.38
2022-10-16T11:30:46.171Z,3178.13
2022-10-16T11:31:46.112Z,3937.50
2022-10-16T11:32:46.086Z,4128.75
2022-10-16T11:33:46.084Z,3948.75
2022-10-16T11:34:47.119Z,4044.38
2022-10-16T11:35:46.049Z,4033.13
2022-10-16T11:36:45.971Z,4089.38
2022-10-16T11:37:45.930Z,4010.63
2022-10-16T11:38:45.921Z,3858.75
2022-10-16T11:39:45.878Z,2823.75
2022-10-16T11:40:45.860Z,2418.75
2022-10-16T11:41:45.866Z,2806.88
2022-10-16T11:42:45.797Z,3740.63
2022-10-16T11:43:45.749Z,4303.13
2022-10-16T11:44:45.728Z,3633.75
2022-10-16T11:45:45.739Z,3757.50
2022-10-16T11:46:58.980Z,2998.13
2022-10-16T11:48:00.999Z,3487.50
2022-10-16T11:48:45.605Z,3622.50
2022-10-16T11:49:45.581Z,3650.63
2022-10-16T11:50:45.544Z,3521.25
2022-10-16T11:51:45.574Z,3549.38
2022-10-16T11:52:45.487Z,3510.00
2022-10-16T11:53:45.463Z,3262.50
2022-10-16T11:54:45.431Z,3380.63
2022-10-16T11:55:46.955Z,3256.88
2022-10-16T11:56:45.369Z,3341.25
2022-10-16T11:57:45.347Z,3391.88
2022-10-16T11:58:45.327Z,3335.63
2022-10-16T11:59:45.313Z,3296.25
2022-10-16T12:00:45.258Z,3240.00
2022-10-16T12:01:45.241Z,3538.13
2022-10-16T12:02:45.198Z,3583.13
2022-10-16T12:03:46.942Z,3667.50
2022-10-16T12:04:45.136Z,3346.88
2022-10-16T12:05:45.113Z,2930.63
2022-10-16T12:06:45.123Z,3307.50
2022-10-16T12:07:45.047Z,3420.00
2022-10-16T12:08:45.025Z,3330.00
2022-10-16T12:09:45.004Z,3487.50
2022-10-16T12:10:44.973Z,3493.13
2022-10-16T12:11:44.928Z,3498.75
2022-10-16T12:12:44.943Z,3785.63
2022-10-16T12:13:44.873Z,3358.13
2022-10-16T12:15:14.624Z,3729.38
2022-10-16T12:15:58.666Z,3645.00
2022-10-16T12:16:44.796Z,3735.00
2022-10-16T12:17:44.776Z,3425.63
2022-10-16T12:18:44.735Z,3543.75
2022-10-16T12:19:44.730Z,3391.88
2022-10-16T12:20:44.668Z,3712.50
2022-10-16T12:21:44.643Z,3706.88
2022-10-16T12:22:44.619Z,3757.50
2022-10-16T12:23:44.605Z,4168.13
2022-10-16T12:24:44.568Z,4280.63
2022-10-16T12:25:44.520Z,3819.38
2022-10-16T12:26:44.498Z,3780.00
2022-10-16T12:27:44.479Z,3611.25
2022-10-16T12:28:44.628Z,3532.50
2022-10-16T12:29:44.429Z,3577.50
2022-10-16T12:30:44.383Z,3577.50
2022-10-16T12:31:49.766Z,3448.13
2022-10-16T12:32:47.891Z,3099.38
2022-10-16T12:33:44.295Z,3048.75
2022-10-16T12:34:44.306Z,3223.13
2022-10-16T12:35:44.239Z,3133.13
2022-10-16T12:36:44.208Z,3121.88
2022-10-16T12:37:44.182Z,3245.63
2022-10-16T12:38:44.149Z,2919.38
2022-10-16T12:39:44.128Z,3138.75
2022-10-16T12:40:44.148Z,3313.13
2022-10-16T12:41:44.061Z,3228.75
2022-10-16T12:42:44.061Z,3015.00
2022-10-16T12:43:44.000Z,3099.38
2022-10-16T12:44:43.972Z,3369.38
2022-10-16T12:45:43.947Z,3189.38
2022-10-16T12:46:43.970Z,3138.75
2022-10-16T12:47:43.881Z,3189.38
2022-10-16T12:48:49.066Z,3335.63
2022-10-16T12:49:43.892Z,3296.25